Time;durP1;ratioP1;P1;durP2;ratioP2;P2;SDS_P1;SDS_P2;PMS_P1;PMS_P2;Temp;Humidity;BMP_temperature;BMP_pressure;BME280_temperature;BME280_humidity;BME280_pressure;Samples;Min_cycle;Max_cycle;Signal;HPM_P1;HPM_P2
2023/03/13 00:01:39;;;;;;;12.90;4.47;;;;;;;;;;4988144;28;20211;-70
2023/03/13 00:04:04;;;;;;;18.27;5.23;;;;;;;;;;4984022;28;20204;-69
2023/03/13 00:06:31;;;;;;;15.27;4.53;;;;;;;;;;4983529;28;20202;-70
2023/03/13 00:08:56;;;;;;;17.03;5.57;;;;;;;;;;4992608;28;20616;-69
2023/03/13 00:11:21;;;;;;;13.10;3.80;;;;;;;;;;4992752;28;20271;-69
2023/03/13 00:13:47;;;;;;;15.47;3.90;;;;;;;;;;4987828;28;20199;-69
2023/03/13 00:16:13;;;;;;;17.53;4.17;;;;;;;;;;4993518;28;20168;-69
2023/03/13 00:18:43;;;;;;;12.47;4.23;;;;;;;;;;4994042;28;20243;-69
2023/03/13 00:21:08;;;;;;;12.17;3.33;;;;;;;;;;4992310;28;20179;-69
2023/03/13 00:23:35;;;;;;;15.20;4.47;;;;;;;;;;4993414;28;20200;-69
2023/03/13 00:26:04;;;;;;;20.07;4.93;;;;;;;;;;4993761;28;20176;-70
2023/03/13 00:28:30;;;;;;;14.03;3.60;;;;;;;;;;4981797;28;20187;-69
2023/03/13 00:31:03;;;;;;;21.57;6.13;;;;;;;;;;4988081;28;20255;-69
2023/03/13 00:33:30;;;;;;;19.50;4.20;;;;;;;;;;4992434;28;20214;-69
2023/03/13 00:35:59;;;;;;;16.67;5.57;;;;;;;;;;4986786;28;20207;-69
2023/03/13 00:38:24;;;;;;;11.20;4.00;;;;;;;;;;4993654;28;20180;-69
2023/03/13 00:40:57;;;;;;;14.73;3.93;;;;;;;;;;4985936;28;20605;-71
2023/03/13 00:43:22;;;;;;;30.10;5.27;;;;;;;;;;4984177;28;20196;-70
2023/03/13 00:45:47;;;;;;;10.73;3.67;;;;;;;;;;4986158;28;20180;-69
2023/03/13 00:48:12;;;;;;;14.87;4.23;;;;;;;;;;4988967;28;20179;-69
2023/03/13 00:50:37;;;;;;;18.43;4.70;;;;;;;;;;4991336;28;20375;-69
2023/03/13 00:53:03;;;;;;;14.83;3.80;;;;;;;;;;4993447;28;20196;-70
2023/03/13 00:55:28;;;;;;;15.63;4.83;;;;;;;;;;4991449;28;20240;-70
2023/03/13 00:57:53;;;;;;;17.33;4.67;;;;;;;;;;4989489;28;20171;-70
2023/03/13 01:00:18;;;;;;;16.93;5.30;;;;;;;;;;4987164;28;20195;-70
2023/03/13 01:02:44;;;;;;;13.17;4.03;;;;;;;;;;4984092;28;20251;-71
2023/03/13 01:05:09;;;;;;;14.00;4.73;;;;;;;;;;4987396;28;20624;-70
2023/03/13 01:07:34;;;;;;;20.37;4.83;;;;;;;;;;4986701;28;20605;-71
2023/03/13 01:09:59;;;;;;;11.20;4.30;;;;;;;;;;4991725;28;20175;-70
2023/03/13 01:12:24;;;;;;;16.70;5.13;;;;;;;;;;4992170;28;20223;-70
2023/03/13 01:14:50;;;;;;;14.30;5.40;;;;;;;;;;4992622;28;20668;-71
2023/03/13 01:17:15;;;;;;;13.57;5.03;;;;;;;;;;4988933;28;20172;-71
2023/03/13 01:19:40;;;;;;;13.07;5.50;;;;;;;;;;4987593;28;20721;-70
2023/03/13 01:22:10;;;;;;;15.27;5.17;;;;;;;;;;4983866;28;20677;-70
2023/03/13 01:24:35;;;;;;;17.33;5.60;;;;;;;;;;4986366;28;20199;-71
2023/03/13 01:27:00;;;;;;;10.63;4.43;;;;;;;;;;4975735;28;20184;-70
2023/03/13 01:29:25;;;;;;;12.60;5.13;;;;;;;;;;4982443;28;20184;-70
2023/03/13 01:31:50;;;;;;;13.73;4.80;;;;;;;;;;4983515;28;20183;-70
2023/03/13 01:34:16;;;;;;;12.90;6.27;;;;;;;;;;4984777;28;20263;-70
2023/03/13 01:36:42;;;;;;;10.00;4.77;;;;;;;;;;4984587;28;20225;-71
2023/03/13 01:39:07;;;;;;;17.37;6.00;;;;;;;;;;4980017;28;20230;-70
2023/03/13 01:41:33;;;;;;;12.03;5.33;;;;;;;;;;4982438;28;20188;-71
2023/03/13 01:43:58;;;;;;;8.17;6.17;;;;;;;;;;4985414;28;20214;-70
2023/03/13 01:46:27;;;;;;;11.20;5.40;;;;;;;;;;4991031;28;20597;-70
2023/03/13 01:49:01;;;;;;;11.53;6.73;;;;;;;;;;4986844;28;20188;-70
2023/03/13 01:51:40;;;;;;;15.30;6.13;;;;;;;;;;4983142;28;20613;-70
2023/03/13 01:54:08;;;;;;;13.83;5.67;;;;;;;;;;4980754;28;20180;-71
2023/03/13 01:56:36;;;;;;;13.53;6.53;;;;;;;;;;4985814;28;20556;-71
2023/03/13 01:59:03;;;;;;;15.17;7.23;;;;;;;;;;4988022;28;20522;-71
2023/03/13 02:01:29;;;;;;;12.57;6.27;;;;;;;;;;4980316;28;20191;-71
2023/03/13 02:03:55;;;;;;;13.07;6.67;;;;;;;;;;4990949;28;20218;-70
2023/03/13 02:06:20;;;;;;;13.97;7.20;;;;;;;;;;4991064;28;20271;-71
2023/03/13 02:08:49;;;;;;;16.50;8.80;;;;;;;;;;4989018;28;20219;-70
2023/03/13 02:11:33;;;;;;;15.50;8.33;;;;;;;;;;4993211;28;20176;-70
2023/03/13 02:13:59;;;;;;;16.10;7.90;;;;;;;;;;4988913;28;20195;-70
2023/03/13 02:16:25;;;;;;;11.90;8.57;;;;;;;;;;4993203;28;20535;-70
2023/03/13 02:18:50;;;;;;;18.10;9.07;;;;;;;;;;4978931;28;20183;-70
2023/03/13 02:21:19;;;;;;;14.07;9.30;;;;;;;;;;4985957;28;20643;-70
2023/03/13 02:23:52;;;;;;;13.37;8.77;;;;;;;;;;4991047;28;20204;-70
2023/03/13 02:26:18;;;;;;;19.50;10.97;;;;;;;;;;4986831;28;20593;-70
2023/03/13 02:28:43;;;;;;;20.73;10.30;;;;;;;;;;4991654;28;20184;-70
2023/03/13 02:31:09;;;;;;;26.60;13.70;;;;;;;;;;4984789;28;20168;-70
2023/03/13 02:33:36;;;;;;;14.63;10.33;;;;;;;;;;4989827;28;20610;-70
2023/03/13 02:36:02;;;;;;;17.57;11.70;;;;;;;;;;4991911;28;20186;-70
2023/03/13 02:38:28;;;;;;;17.40;11.40;;;;;;;;;;4991221;28;20180;-70
2023/03/13 02:40:54;;;;;;;19.73;10.93;;;;;;;;;;4983939;28;20182;-70
2023/03/13 02:43:21;;;;;;;23.10;12.63;;;;;;;;;;4983019;28;20717;-70
2023/03/13 02:46:19;;;;;;;16.10;10.37;;;;;;;;;;4987051;28;20179;-70
2023/03/13 02:48:46;;;;;;;18.77;10.20;;;;;;;;;;4955076;28;20227;-70
2023/03/13 02:51:21;;;;;;;20.37;10.70;;;;;;;;;;4983850;28;20176;-70
2023/03/13 02:53:47;;;;;;;12.90;9.40;;;;;;;;;;4985461;28;20266;-70
2023/03/13 02:56:14;;;;;;;14.87;9.70;;;;;;;;;;4982844;28;20207;-70
2023/03/13 02:58:40;;;;;;;15.37;8.63;;;;;;;;;;4985776;28;20184;-70
2023/03/13 03:01:06;;;;;;;17.27;9.30;;;;;;;;;;4986911;28;20199;-70
2023/03/13 03:03:32;;;;;;;13.77;9.27;;;;;;;;;;4985435;28;20227;-70
2023/03/13 03:05:57;;;;;;;18.13;8.87;;;;;;;;;;4977046;28;20230;-70
2023/03/13 03:08:23;;;;;;;19.70;9.23;;;;;;;;;;4985268;28;20176;-70
2023/03/13 03:10:48;;;;;;;12.40;8.00;;;;;;;;;;4991499;28;20180;-70
2023/03/13 03:13:13;;;;;;;11.60;7.85;;;;;;;;;;4990917;28;20255;-69
2023/03/13 03:15:38;;;;;;;14.20;7.70;;;;;;;;;;4991401;28;20653;-69
2023/03/13 03:18:03;;;;;;;10.80;7.03;;;;;;;;;;4990906;28;20172;-71
2023/03/13 03:20:29;;;;;;;11.20;7.63;;;;;;;;;;4979310;28;20179;-71
2023/03/13 03:22:54;;;;;;;10.83;6.93;;;;;;;;;;4986339;28;20196;-70
2023/03/13 03:25:19;;;;;;;9.53;6.40;;;;;;;;;;4994928;28;20210;-69
2023/03/13 03:27:44;;;;;;;12.90;8.03;;;;;;;;;;4995182;28;20176;-71
2023/03/13 03:30:10;;;;;;;9.13;6.13;;;;;;;;;;4994962;28;20179;-70
2023/03/13 03:32:35;;;;;;;8.13;6.20;;;;;;;;;;4994855;28;20200;-70
2023/03/13 03:35:00;;;;;;;10.57;6.53;;;;;;;;;;4994049;28;20203;-70
2023/03/13 03:37:26;;;;;;;9.93;6.88;;;;;;;;;;4993925;28;20185;-70
2023/03/13 03:39:51;;;;;;;8.98;6.28;;;;;;;;;;4992316;28;20621;-70
2023/03/13 03:42:16;;;;;;;9.03;6.30;;;;;;;;;;4985331;28;20602;-68
2023/03/13 03:44:41;;;;;;;8.70;6.25;;;;;;;;;;4990524;28;20199;-70
2023/03/13 03:47:06;;;;;;;10.07;6.43;;;;;;;;;;4998120;28;20190;-71
2023/03/13 03:49:32;;;;;;;9.85;5.68;;;;;;;;;;4984450;28;20183;-70
2023/03/13 03:51:57;;;;;;;8.38;6.55;;;;;;;;;;4999982;28;20195;-70
2023/03/13 03:54:22;;;;;;;12.45;6.63;;;;;;;;;;5003419;28;20187;-70
2023/03/13 03:56:47;;;;;;;9.88;6.68;;;;;;;;;;5003250;28;20194;-70
2023/03/13 03:59:12;;;;;;;11.13;6.80;;;;;;;;;;4986034;28;20184;-70
2023/03/13 04:01:37;;;;;;;8.80;7.25;;;;;;;;;;4992994;28;20222;-70
2023/03/13 04:04:03;;;;;;;15.53;7.57;;;;;;;;;;4995889;28;20199;-70
2023/03/13 04:06:29;;;;;;;12.20;5.95;;;;;;;;;;4994247;28;20552;-70
2023/03/13 04:08:54;;;;;;;9.15;6.18;;;;;;;;;;4990406;28;20183;-70
2023/03/13 04:11:20;;;;;;;13.38;7.40;;;;;;;;;;4994361;28;20179;-70
2023/03/13 04:13:45;;;;;;;9.68;6.35;;;;;;;;;;4993862;28;20676;-70
2023/03/13 04:16:11;;;;;;;9.77;6.30;;;;;;;;;;4997108;28;20175;-70
2023/03/13 04:18:36;;;;;;;14.10;8.35;;;;;;;;;;4991086;28;20541;-70
2023/03/13 04:21:02;;;;;;;10.05;6.82;;;;;;;;;;4978947;28;20207;-70
2023/03/13 04:23:27;;;;;;;11.23;6.82;;;;;;;;;;4990075;28;20219;-70
2023/03/13 04:25:52;;;;;;;9.70;6.68;;;;;;;;;;4980352;28;20263;-70
2023/03/13 04:28:18;;;;;;;8.80;6.53;;;;;;;;;;4984727;28;20208;-70
2023/03/13 04:30:43;;;;;;;7.43;6.47;;;;;;;;;;4987800;28;20215;-70
2023/03/13 04:33:08;;;;;;;10.02;6.80;;;;;;;;;;4982865;28;20200;-70
2023/03/13 04:35:33;;;;;;;9.30;6.22;;;;;;;;;;4983737;28;20187;-70
2023/03/13 04:38:01;;;;;;;12.95;6.43;;;;;;;;;;4977931;28;20184;-70
2023/03/13 04:40:26;;;;;;;9.27;6.40;;;;;;;;;;4983581;28;20195;-70
2023/03/13 04:42:51;;;;;;;9.60;6.13;;;;;;;;;;4986984;28;20208;-70
2023/03/13 04:45:16;;;;;;;9.07;5.25;;;;;;;;;;4987063;28;20204;-70
2023/03/13 04:47:42;;;;;;;10.15;5.47;;;;;;;;;;4987475;28;20187;-71
2023/03/13 04:50:07;;;;;;;11.57;5.00;;;;;;;;;;4977479;28;20188;-70
2023/03/13 04:52:32;;;;;;;10.50;5.68;;;;;;;;;;4984015;28;20203;-69
2023/03/13 04:54:57;;;;;;;8.73;4.30;;;;;;;;;;4988006;28;20670;-69
2023/03/13 04:57:23;;;;;;;7.40;4.25;;;;;;;;;;4989403;28;20183;-69
2023/03/13 04:59:48;;;;;;;13.98;5.57;;;;;;;;;;4992798;28;20314;-69
2023/03/13 05:02:13;;;;;;;5.72;4.43;;;;;;;;;;4994665;22;20238;-73
2023/03/13 05:04:38;;;;;;;5.15;3.75;;;;;;;;;;4995077;28;20587;-74
2023/03/13 05:07:03;;;;;;;7.13;4.03;;;;;;;;;;5000907;28;20196;-74
2023/03/13 05:09:29;;;;;;;7.60;3.95;;;;;;;;;;4993452;28;20286;-75
2023/03/13 05:11:54;;;;;;;6.80;3.58;;;;;;;;;;4995990;28;20179;-74
2023/03/13 05:14:19;;;;;;;5.07;3.55;;;;;;;;;;4985077;28;20196;-74
2023/03/13 05:16:44;;;;;;;4.22;3.30;;;;;;;;;;4988325;28;20191;-74
2023/03/13 05:19:09;;;;;;;8.73;4.28;;;;;;;;;;4991846;28;20564;-73
2023/03/13 05:21:35;;;;;;;10.70;3.80;;;;;;;;;;4991056;28;20267;-74
2023/03/13 05:24:00;;;;;;;9.38;4.45;;;;;;;;;;4988650;28;20200;-74
2023/03/13 05:26:25;;;;;;;11.30;4.97;;;;;;;;;;4986246;28;20623;-74
2023/03/13 05:28:50;;;;;;;4.32;2.78;;;;;;;;;;4983458;28;20180;-73
2023/03/13 05:31:15;;;;;;;6.63;3.63;;;;;;;;;;4985854;28;20181;-73
2023/03/13 05:33:41;;;;;;;6.60;3.47;;;;;;;;;;4981866;28;20215;-74
2023/03/13 05:36:06;;;;;;;10.05;3.65;;;;;;;;;;4997482;28;20191;-73
2023/03/13 05:38:31;;;;;;;9.57;3.47;;;;;;;;;;4987780;28;20172;-74
2023/03/13 05:40:56;;;;;;;7.97;2.70;;;;;;;;;;4986542;28;20257;-74
2023/03/13 05:43:22;;;;;;;6.43;3.33;;;;;;;;;;4985143;28;20214;-73
2023/03/13 05:45:47;;;;;;;3.45;2.70;;;;;;;;;;4987785;28;20258;-74
2023/03/13 05:48:12;;;;;;;7.55;3.92;;;;;;;;;;4979147;28;20208;-74
2023/03/13 05:50:37;;;;;;;4.28;2.60;;;;;;;;;;4994414;28;20179;-73
2023/03/13 05:53:02;;;;;;;4.53;2.65;;;;;;;;;;4985721;28;20222;-74
2023/03/13 05:55:28;;;;;;;7.70;3.53;;;;;;;;;;4992433;28;20642;-74
2023/03/13 05:57:53;;;;;;;7.90;3.00;;;;;;;;;;4983647;28;20668;-73
2023/03/13 06:00:18;;;;;;;5.38;3.00;;;;;;;;;;4986444;28;20181;-74
2023/03/13 06:02:43;;;;;;;7.03;3.28;;;;;;;;;;4979913;28;20598;-73
2023/03/13 06:05:09;;;;;;;5.88;3.08;;;;;;;;;;4988148;28;21775;-74
2023/03/13 06:07:34;;;;;;;6.57;3.25;;;;;;;;;;5000789;28;20553;-74
2023/03/13 06:10:00;;;;;;;3.63;2.92;;;;;;;;;;4990884;28;20180;-74
2023/03/13 06:12:25;;;;;;;6.78;2.72;;;;;;;;;;4992157;28;20199;-74
2023/03/13 06:14:50;;;;;;;6.72;3.00;;;;;;;;;;4987434;28;20210;-74
2023/03/13 06:17:15;;;;;;;8.18;3.55;;;;;;;;;;4984016;28;20262;-74
2023/03/13 06:19:40;;;;;;;6.88;3.08;;;;;;;;;;4989518;28;20194;-74
2023/03/13 06:22:06;;;;;;;7.20;3.13;;;;;;;;;;4984604;28;20203;-74
2023/03/13 06:24:31;;;;;;;6.57;3.50;;;;;;;;;;4991331;28;20211;-74
2023/03/13 06:26:56;;;;;;;5.93;3.20;;;;;;;;;;4990652;28;20262;-73
2023/03/13 06:29:23;;;;;;;3.47;2.40;;;;;;;;;;4986856;28;20258;-73
2023/03/13 06:31:48;;;;;;;5.75;2.67;;;;;;;;;;4991818;28;20219;-73
2023/03/13 06:34:13;;;;;;;12.63;3.63;;;;;;;;;;4989332;28;20223;-73
2023/03/13 06:36:38;;;;;;;7.22;3.13;;;;;;;;;;4991873;28;20205;-73
2023/03/13 06:39:04;;;;;;;6.40;3.20;;;;;;;;;;4992862;28;20184;-73
2023/03/13 06:41:29;;;;;;;7.38;3.20;;;;;;;;;;4991163;28;20182;-73
2023/03/13 06:43:54;;;;;;;5.53;2.50;;;;;;;;;;4992377;28;20211;-74
2023/03/13 06:46:21;;;;;;;12.05;3.95;;;;;;;;;;4992749;28;20179;-74
2023/03/13 06:48:46;;;;;;;8.98;3.00;;;;;;;;;;4990828;28;20208;-74
2023/03/13 06:51:12;;;;;;;7.97;3.40;;;;;;;;;;4981710;28;20216;-74
2023/03/13 06:53:37;;;;;;;6.93;2.85;;;;;;;;;;4982991;28;20572;-74
2023/03/13 06:56:03;;;;;;;6.68;3.50;;;;;;;;;;4983765;28;20187;-74
2023/03/13 06:58:28;;;;;;;5.45;3.38;;;;;;;;;;4989497;28;20184;-74
2023/03/13 07:00:53;;;;;;;4.32;2.70;;;;;;;;;;4980695;28;20184;-74
2023/03/13 07:03:18;;;;;;;9.93;3.20;;;;;;;;;;4994173;28;20222;-74
2023/03/13 07:05:43;;;;;;;6.53;3.70;;;;;;;;;;4995888;28;20199;-74
2023/03/13 07:08:09;;;;;;;9.55;3.10;;;;;;;;;;4995079;28;20226;-74
2023/03/13 07:10:34;;;;;;;9.75;3.20;;;;;;;;;;4995217;28;20253;-74
2023/03/13 07:12:59;;;;;;;9.02;3.20;;;;;;;;;;4995187;28;20192;-74
2023/03/13 07:15:24;;;;;;;4.70;3.33;;;;;;;;;;4994653;28;20267;-74
2023/03/13 07:17:50;;;;;;;10.00;3.70;;;;;;;;;;4984334;28;20653;-74
2023/03/13 07:20:15;;;;;;;7.63;3.45;;;;;;;;;;4990643;28;20180;-74
2023/03/13 07:22:40;;;;;;;8.90;3.50;;;;;;;;;;4986058;28;20203;-74
2023/03/13 07:25:06;;;;;;;8.50;3.35;;;;;;;;;;4980862;28;20225;-74
2023/03/13 07:27:31;;;;;;;11.60;3.75;;;;;;;;;;4990687;28;20176;-74
2023/03/13 07:29:56;;;;;;;8.07;3.80;;;;;;;;;;4984562;28;20186;-74
2023/03/13 07:32:22;;;;;;;9.32;3.85;;;;;;;;;;4985116;28;20232;-74
2023/03/13 07:34:47;;;;;;;7.80;4.88;;;;;;;;;;4992760;28;20182;-74
2023/03/13 07:37:13;;;;;;;9.27;4.30;;;;;;;;;;4983278;28;20215;-74
2023/03/13 07:39:38;;;;;;;8.13;3.33;;;;;;;;;;4988380;28;20191;-74
2023/03/13 07:42:03;;;;;;;13.57;4.70;;;;;;;;;;4983972;28;20267;-74
2023/03/13 07:44:28;;;;;;;7.88;3.50;;;;;;;;;;4988649;28;20250;-74
2023/03/13 07:46:54;;;;;;;10.98;4.38;;;;;;;;;;4990435;28;20658;-75
2023/03/13 07:49:19;;;;;;;10.63;4.32;;;;;;;;;;4983997;28;20186;-75
2023/03/13 07:51:46;;;;;;;10.32;4.65;;;;;;;;;;4992574;28;20194;-74
2023/03/13 07:54:11;;;;;;;5.40;3.25;;;;;;;;;;4992308;28;20200;-75
2023/03/13 07:56:36;;;;;;;10.25;3.60;;;;;;;;;;4983086;28;20620;-74
2023/03/13 07:59:02;;;;;;;7.95;3.60;;;;;;;;;;4986647;28;20195;-75
2023/03/13 08:01:27;;;;;;;10.35;3.83;;;;;;;;;;4990091;28;20189;-76
2023/03/13 08:03:54;;;;;;;7.00;3.70;;;;;;;;;;4988569;28;20771;-75
2023/03/13 08:06:22;;;;;;;6.78;3.72;;;;;;;;;;4993749;28;20179;-75
2023/03/13 08:08:47;;;;;;;10.80;4.30;;;;;;;;;;4994654;28;20836;-74
2023/03/13 08:11:13;;;;;;;11.52;3.95;;;;;;;;;;4992100;28;20266;-74
2023/03/13 08:13:40;;;;;;;6.70;3.10;;;;;;;;;;4995652;28;20195;-75
2023/03/13 08:16:12;;;;;;;7.85;3.50;;;;;;;;;;4998776;28;20176;-74
2023/03/13 08:18:39;;;;;;;9.07;4.00;;;;;;;;;;4995076;28;20593;-74
2023/03/13 08:21:05;;;;;;;7.60;4.00;;;;;;;;;;4993962;28;20271;-75
2023/03/13 08:23:31;;;;;;;11.73;4.07;;;;;;;;;;4995116;28;20200;-74
2023/03/13 08:26:00;;;;;;;10.35;4.47;;;;;;;;;;4995147;28;20236;-74
2023/03/13 08:28:25;;;;;;;8.23;3.80;;;;;;;;;;4995272;28;20203;-74
2023/03/13 08:30:50;;;;;;;9.82;4.20;;;;;;;;;;4982838;28;20649;-74
2023/03/13 08:33:16;;;;;;;8.32;3.20;;;;;;;;;;4986646;28;20257;-75
2023/03/13 08:35:41;;;;;;;8.10;4.55;;;;;;;;;;4988327;28;20267;-75
2023/03/13 08:38:07;;;;;;;6.07;2.92;;;;;;;;;;4985352;28;20257;-74
2023/03/13 08:40:32;;;;;;;5.72;3.70;;;;;;;;;;4990997;28;20180;-74
2023/03/13 08:42:57;;;;;;;6.28;3.72;;;;;;;;;;4994806;28;20195;-75
2023/03/13 08:45:22;;;;;;;8.27;3.47;;;;;;;;;;4988356;28;20211;-75
2023/03/13 08:47:50;;;;;;;5.55;2.60;;;;;;;;;;4989000;28;20188;-74
2023/03/13 08:50:16;;;;;;;6.82;3.20;;;;;;;;;;4987103;28;20214;-74
2023/03/13 08:52:42;;;;;;;5.03;3.22;;;;;;;;;;4991774;28;20231;-74
2023/03/13 08:55:08;;;;;;;6.25;2.78;;;;;;;;;;4991001;28;20220;-74
2023/03/13 08:57:33;;;;;;;6.95;2.75;;;;;;;;;;4990350;28;20191;-74
2023/03/13 08:59:58;;;;;;;8.90;2.88;;;;;;;;;;4992429;28;20214;-75
2023/03/13 09:02:23;;;;;;;7.72;2.92;;;;;;;;;;4999071;28;20202;-75
2023/03/13 09:04:48;;;;;;;5.20;2.30;;;;;;;;;;4997478;28;20619;-75
2023/03/13 09:07:14;;;;;;;5.00;2.83;;;;;;;;;;4985748;28;20172;-74
2023/03/13 09:09:39;;;;;;;8.50;3.30;;;;;;;;;;4983870;28;20187;-74
2023/03/13 09:12:04;;;;;;;2.85;2.10;;;;;;;;;;4985415;28;20776;-74
2023/03/13 09:14:30;;;;;;;6.97;2.63;;;;;;;;;;4983452;28;20196;-74
2023/03/13 09:16:55;;;;;;;7.20;2.50;;;;;;;;;;4989521;28;20198;-74
2023/03/13 09:19:20;;;;;;;6.55;2.25;;;;;;;;;;4992429;28;20188;-74
2023/03/13 09:21:48;;;;;;;6.43;1.73;;;;;;;;;;4992514;28;20183;-74
2023/03/13 09:24:13;;;;;;;5.10;1.90;;;;;;;;;;4988596;28;20209;-74
2023/03/13 09:26:38;;;;;;;5.15;1.33;;;;;;;;;;4990616;28;20180;-74
2023/03/13 09:29:04;;;;;;;6.57;1.75;;;;;;;;;;4984655;28;20858;-74
2023/03/13 09:31:30;;;;;;;7.40;1.70;;;;;;;;;;4988294;28;20180;-75
2023/03/13 09:33:56;;;;;;;6.32;1.50;;;;;;;;;;4991673;28;20195;-73
2023/03/13 09:36:22;;;;;;;4.10;1.63;;;;;;;;;;4992921;28;20176;-72
2023/03/13 09:38:47;;;;;;;4.30;1.42;;;;;;;;;;4991874;28;20644;-73
2023/03/13 09:41:16;;;;;;;2.65;1.75;;;;;;;;;;4990132;28;20200;-72
2023/03/13 09:43:47;;;;;;;4.13;1.20;;;;;;;;;;4987786;28;20200;-73
2023/03/13 09:46:15;;;;;;;2.47;1.30;;;;;;;;;;4987577;28;20187;-72
2023/03/13 09:48:46;;;;;;;3.45;1.02;;;;;;;;;;4990290;28;20230;-72
2023/03/13 09:51:11;;;;;;;3.03;1.15;;;;;;;;;;4990250;28;20183;-73
2023/03/13 09:53:39;;;;;;;1.85;1.20;;;;;;;;;;4989511;28;20235;-73
2023/03/13 09:56:05;;;;;;;3.45;1.10;;;;;;;;;;4987514;28;20274;-73
2023/03/13 09:58:32;;;;;;;3.75;1.02;;;;;;;;;;4990985;28;20553;-73
2023/03/13 10:00:59;;;;;;;3.15;0.95;;;;;;;;;;4984467;28;20191;-73
2023/03/13 10:03:29;;;;;;;2.47;1.08;;;;;;;;;;4988112;28;20298;-73
2023/03/13 10:05:56;;;;;;;4.35;1.05;;;;;;;;;;4989541;28;20200;-73
2023/03/13 10:08:23;;;;;;;2.58;1.20;;;;;;;;;;4985332;28;20175;-73
2023/03/13 10:11:05;;;;;;;2.45;1.10;;;;;;;;;;4988919;28;20192;-73
2023/03/13 10:13:36;;;;;;;2.13;0.95;;;;;;;;;;4986471;28;20196;-73
2023/03/13 10:16:05;;;;;;;3.63;1.48;;;;;;;;;;4992473;28;20190;-73
2023/03/13 10:18:31;;;;;;;1.98;1.33;;;;;;;;;;4988265;28;20548;-72
2023/03/13 10:20:58;;;;;;;2.47;1.30;;;;;;;;;;4992129;28;20559;-73
2023/03/13 10:23:26;;;;;;;5.22;2.08;;;;;;;;;;4985682;28;20692;-73
2023/03/13 10:25:52;;;;;;;2.22;1.52;;;;;;;;;;4992260;28;20724;-73
2023/03/13 10:28:21;;;;;;;2.78;1.00;;;;;;;;;;4991783;28;20184;-73
2023/03/13 10:30:50;;;;;;;1.75;0.95;;;;;;;;;;5005537;28;20184;-73
2023/03/13 10:33:26;;;;;;;2.10;1.08;;;;;;;;;;4986159;28;20282;-73
2023/03/13 10:36:00;;;;;;;4.07;1.88;;;;;;;;;;4991133;28;20180;-72
2023/03/13 10:38:25;;;;;;;3.05;1.33;;;;;;;;;;4991619;28;20206;-73
2023/03/13 10:40:58;;;;;;;3.20;1.17;;;;;;;;;;4992304;28;20234;-73
2023/03/13 10:43:24;;;;;;;4.88;1.60;;;;;;;;;;4991402;28;20626;-73
2023/03/13 10:45:50;;;;;;;4.13;1.50;;;;;;;;;;4990499;28;20203;-73
2023/03/13 10:48:20;;;;;;;4.38;1.60;;;;;;;;;;4988988;28;20180;-76
2023/03/13 10:50:46;;;;;;;3.67;1.48;;;;;;;;;;4992347;28;20632;-73
2023/03/13 10:53:21;;;;;;;3.95;1.60;;;;;;;;;;4986307;28;20207;-73
2023/03/13 10:55:46;;;;;;;5.88;2.08;;;;;;;;;;4988124;28;20677;-73
2023/03/13 10:58:20;;;;;;;4.80;1.38;;;;;;;;;;4988425;28;20187;-73
2023/03/13 11:00:46;;;;;;;8.13;1.20;;;;;;;;;;4985037;28;20197;-73
2023/03/13 11:03:16;;;;;;;3.35;0.98;;;;;;;;;;5004312;23;20780;-69
2023/03/13 11:05:42;;;;;;;2.33;1.10;;;;;;;;;;5005590;28;20207;-71
2023/03/13 11:08:19;;;;;;;3.80;1.05;;;;;;;;;;5006469;28;20245;-68
2023/03/13 11:10:55;;;;;;;3.13;1.05;;;;;;;;;;5008603;28;20193;-70
2023/03/13 11:13:28;;;;;;;3.10;0.75;;;;;;;;;;4993203;28;20200;-69
2023/03/13 11:15:56;;;;;;;2.78;0.98;;;;;;;;;;4990493;28;20171;-69
2023/03/13 11:18:21;;;;;;;4.93;1.45;;;;;;;;;;4987253;28;20171;-70
2023/03/13 11:20:47;;;;;;;6.33;1.20;;;;;;;;;;4988574;28;20176;-70
2023/03/13 11:23:24;;;;;;;6.95;1.10;;;;;;;;;;4988456;28;20432;-70
2023/03/13 11:25:57;;;;;;;3.13;1.17;;;;;;;;;;4988999;28;20230;-69
2023/03/13 11:28:27;;;;;;;3.08;0.85;;;;;;;;;;4983869;28;20553;-71
2023/03/13 11:31:06;;;;;;;3.20;0.90;;;;;;;;;;4988561;28;20178;-70
2023/03/13 11:33:37;;;;;;;3.53;1.40;;;;;;;;;;4989698;28;20681;-68
2023/03/13 11:36:05;;;;;;;4.22;1.00;;;;;;;;;;4986926;28;20649;-69
2023/03/13 11:38:41;;;;;;;3.83;0.80;;;;;;;;;;4983700;28;20180;-69
2023/03/13 11:41:17;;;;;;;3.92;1.00;;;;;;;;;;4986687;28;20184;-69
2023/03/13 11:43:44;;;;;;;3.08;1.05;;;;;;;;;;4984530;28;20749;-70
2023/03/13 11:46:24;;;;;;;3.70;1.48;;;;;;;;;;4989408;28;20225;-68
2023/03/13 11:48:53;;;;;;;3.97;0.93;;;;;;;;;;4991228;28;20206;-68
2023/03/13 11:51:20;;;;;;;3.67;0.90;;;;;;;;;;4989152;28;20175;-68
2023/03/13 11:53:46;;;;;;;5.82;1.20;;;;;;;;;;4991527;28;20258;-68
2023/03/13 11:56:14;;;;;;;3.60;1.03;;;;;;;;;;4988573;28;20176;-70
2023/03/13 11:58:55;;;;;;;2.75;1.02;;;;;;;;;;4995256;28;20460;-71
2023/03/13 12:01:23;;;;;;;4.35;1.08;;;;;;;;;;4987778;28;20688;-68
2023/03/13 12:04:04;;;;;;;3.30;1.00;;;;;;;;;;4992732;28;20226;-68
2023/03/13 12:06:48;;;;;;;4.88;1.48;;;;;;;;;;4995712;28;20164;-68
2023/03/13 12:09:26;;;;;;;4.60;1.15;;;;;;;;;;4991990;28;20210;-69
2023/03/13 12:12:02;;;;;;;5.43;1.10;;;;;;;;;;4991061;28;20183;-69
2023/03/13 12:14:33;;;;;;;3.17;0.98;;;;;;;;;;4988816;28;20253;-69
2023/03/13 12:17:01;;;;;;;3.17;1.20;;;;;;;;;;4993002;28;20557;-69
2023/03/13 12:19:29;;;;;;;4.63;1.27;;;;;;;;;;5006997;28;20179;-69
2023/03/13 12:21:56;;;;;;;4.82;1.45;;;;;;;;;;4990803;28;20615;-69
2023/03/13 12:24:33;;;;;;;9.60;1.88;;;;;;;;;;4993060;28;20203;-69
2023/03/13 12:27:01;;;;;;;8.00;1.65;;;;;;;;;;4986844;28;20668;-69
2023/03/13 12:29:29;;;;;;;5.53;1.70;;;;;;;;;;4982754;28;20183;-69
2023/03/13 12:32:03;;;;;;;6.45;1.50;;;;;;;;;;4989452;28;20191;-70
2023/03/13 12:34:47;;;;;;;5.82;2.15;;;;;;;;;;4986362;28;20298;-68
2023/03/13 12:37:22;;;;;;;5.00;1.50;;;;;;;;;;4991730;28;20180;-68
2023/03/13 12:40:10;;;;;;;6.07;1.33;;;;;;;;;;4983867;28;20238;-68
2023/03/13 12:42:43;;;;;;;7.50;1.65;;;;;;;;;;4968683;28;20199;-68
2023/03/13 12:45:13;;;;;;;8.90;2.72;;;;;;;;;;4990898;28;20299;-69
2023/03/13 12:47:39;;;;;;;5.63;1.80;;;;;;;;;;4988337;28;20177;-68
2023/03/13 12:50:15;;;;;;;6.10;1.57;;;;;;;;;;4985890;28;20263;-68
2023/03/13 12:52:40;;;;;;;5.30;1.73;;;;;;;;;;4982399;28;20843;-68
2023/03/13 12:55:08;;;;;;;7.47;1.63;;;;;;;;;;4986336;28;20176;-68
2023/03/13 12:57:52;;;;;;;8.15;2.38;;;;;;;;;;4986157;28;20426;-68
2023/03/13 13:00:25;;;;;;;6.03;1.85;;;;;;;;;;4987501;28;20192;-71
2023/03/13 13:03:09;;;;;;;8.68;2.30;;;;;;;;;;4984142;28;20295;-69
2023/03/13 13:05:35;;;;;;;8.18;1.88;;;;;;;;;;4988599;28;20231;-69
2023/03/13 13:08:00;;;;;;;7.90;2.58;;;;;;;;;;4982827;28;20259;-68
2023/03/13 13:10:26;;;;;;;11.05;1.92;;;;;;;;;;4986202;28;20265;-69
2023/03/13 13:13:10;;;;;;;11.80;2.25;;;;;;;;;;4981778;28;20243;-69
2023/03/13 13:15:36;;;;;;;5.85;2.10;;;;;;;;;;4989336;28;20191;-69
2023/03/13 13:18:14;;;;;;;6.85;1.63;;;;;;;;;;4990397;28;20234;-69
2023/03/13 13:20:41;;;;;;;7.60;2.13;;;;;;;;;;4987002;28;20750;-69
2023/03/13 13:23:21;;;;;;;9.60;2.13;;;;;;;;;;4987087;28;20711;-69
2023/03/13 13:25:47;;;;;;;12.00;2.92;;;;;;;;;;4987379;28;20259;-69
2023/03/13 13:28:12;;;;;;;14.68;2.72;;;;;;;;;;4987817;28;20257;-69
2023/03/13 13:30:38;;;;;;;8.77;2.30;;;;;;;;;;4987930;28;20233;-69
2023/03/13 13:33:19;;;;;;;9.60;2.95;;;;;;;;;;4989378;28;20203;-69
2023/03/13 13:36:04;;;;;;;7.20;2.35;;;;;;;;;;4989312;28;20179;-69
2023/03/13 13:38:35;;;;;;;8.48;2.20;;;;;;;;;;4986012;28;20606;-69
2023/03/13 13:41:21;;;;;;;8.30;2.25;;;;;;;;;;4987025;28;20254;-69
2023/03/13 13:43:47;;;;;;;11.57;2.72;;;;;;;;;;4987464;28;20200;-69
2023/03/13 13:46:21;;;;;;;9.80;2.28;;;;;;;;;;4987955;28;20200;-69
2023/03/13 13:49:05;;;;;;;7.65;2.53;;;;;;;;;;4981094;28;20176;-69
2023/03/13 13:51:33;;;;;;;9.80;3.25;;;;;;;;;;4991745;28;20198;-69
2023/03/13 13:54:00;;;;;;;8.43;2.35;;;;;;;;;;4987930;28;20199;-69
2023/03/13 13:56:39;;;;;;;8.23;2.50;;;;;;;;;;4984784;28;20176;-68
2023/03/13 13:59:20;;;;;;;10.82;2.22;;;;;;;;;;4990747;28;20683;-69
2023/03/13 14:01:46;;;;;;;11.73;2.75;;;;;;;;;;4989244;28;20183;-69
2023/03/13 14:04:11;;;;;;;13.30;2.75;;;;;;;;;;4988734;28;20222;-69
2023/03/13 14:06:37;;;;;;;11.87;2.77;;;;;;;;;;4984721;28;20184;-68
2023/03/13 14:09:32;;;;;;;9.45;2.83;;;;;;;;;;5001272;28;20421;-69
2023/03/13 14:11:57;;;;;;;12.50;3.80;;;;;;;;;;4983729;28;20198;-68
2023/03/13 14:14:22;;;;;;;9.38;2.67;;;;;;;;;;4988963;28;20204;-69
2023/03/13 14:16:52;;;;;;;11.98;2.45;;;;;;;;;;4989527;28;20317;-69
2023/03/13 14:19:22;;;;;;;13.38;2.83;;;;;;;;;;4990273;28;20183;-69
2023/03/13 14:21:47;;;;;;;10.65;2.47;;;;;;;;;;4984793;28;20276;-69
2023/03/13 14:24:13;;;;;;;7.57;2.67;;;;;;;;;;4988670;28;20294;-69
2023/03/13 14:26:41;;;;;;;9.32;3.10;;;;;;;;;;4992859;28;20188;-68
2023/03/13 14:29:14;;;;;;;8.93;2.55;;;;;;;;;;4990382;28;20172;-68
2023/03/13 14:31:39;;;;;;;10.75;3.58;;;;;;;;;;4983033;28;20198;-69
2023/03/13 14:34:10;;;;;;;12.73;2.42;;;;;;;;;;4989826;28;20200;-69
2023/03/13 14:36:51;;;;;;;13.45;3.25;;;;;;;;;;4988295;28;20234;-69
2023/03/13 14:39:34;;;;;;;12.55;2.75;;;;;;;;;;4984697;28;20180;-69
2023/03/13 14:42:09;;;;;;;16.38;3.58;;;;;;;;;;4989951;28;20630;-69